sensor_id;sensor_type;location;lat;lon;timestamp;P1;durP1;ratioP1;P2;durP2;ratioP2
830;SDS011;397;50.564;7.272;2022-10-03T00:02:32;14.83;;;9.23;;
830;SDS011;397;50.564;7.272;2022-10-03T00:13:29;15.10;;;9.30;;
830;SDS011;397;50.564;7.272;2022-10-03T00:16:05;17.00;;;9.40;;
830;SDS011;397;50.564;7.272;2022-10-03T00:24:15;22.53;;;9.00;;
830;SDS011;397;50.564;7.272;2022-10-03T00:26:55;14.93;;;8.67;;
830;SDS011;397;50.564;7.272;2022-10-03T00:29:25;13.50;;;8.40;;
830;SDS011;397;50.564;7.272;2022-10-03T00:37:32;11.57;;;8.03;;
830;SDS011;397;50.564;7.272;2022-10-03T00:50:55;19.27;;;8.33;;
830;SDS011;397;50.564;7.272;2022-10-03T00:53:28;16.50;;;10.17;;
830;SDS011;397;50.564;7.272;2022-10-03T00:56:05;17.70;;;10.33;;
830;SDS011;397;50.564;7.272;2022-10-03T00:58:36;11.53;;;7.33;;
830;SDS011;397;50.564;7.272;2022-10-03T01:04:05;13.97;;;8.10;;
830;SDS011;397;50.564;7.272;2022-10-03T01:06:45;10.50;;;7.77;;
830;SDS011;397;50.564;7.272;2022-10-03T01:12:34;10.03;;;7.90;;
830;SDS011;397;50.564;7.272;2022-10-03T01:23:38;15.40;;;7.97;;
830;SDS011;397;50.564;7.272;2022-10-03T01:29:08;13.67;;;8.33;;
830;SDS011;397;50.564;7.272;2022-10-03T01:32:09;9.10;;;7.37;;
830;SDS011;397;50.564;7.272;2022-10-03T01:40:24;13.27;;;8.23;;
830;SDS011;397;50.564;7.272;2022-10-03T01:43:05;12.17;;;6.90;;
830;SDS011;397;50.564;7.272;2022-10-03T01:45:45;14.33;;;8.37;;
830;SDS011;397;50.564;7.272;2022-10-03T01:48:31;10.30;;;7.20;;
830;SDS011;397;50.564;7.272;2022-10-03T01:51:04;11.40;;;6.83;;
830;SDS011;397;50.564;7.272;2022-10-03T01:53:47;13.30;;;7.30;;
830;SDS011;397;50.564;7.272;2022-10-03T01:56:24;12.97;;;7.83;;
830;SDS011;397;50.564;7.272;2022-10-03T01:59:11;10.60;;;8.40;;
830;SDS011;397;50.564;7.272;2022-10-03T02:04:19;11.53;;;7.70;;
830;SDS011;397;50.564;7.272;2022-10-03T02:07:04;16.03;;;6.70;;
830;SDS011;397;50.564;7.272;2022-10-03T02:12:36;17.67;;;8.03;;
830;SDS011;397;50.564;7.272;2022-10-03T02:15:12;17.70;;;6.90;;
830;SDS011;397;50.564;7.272;2022-10-03T02:18:11;14.53;;;7.20;;
830;SDS011;397;50.564;7.272;2022-10-03T02:20:33;13.83;;;6.93;;
830;SDS011;397;50.564;7.272;2022-10-03T02:23:00;15.90;;;7.47;;
830;SDS011;397;50.564;7.272;2022-10-03T02:29:17;17.63;;;8.10;;
830;SDS011;397;50.564;7.272;2022-10-03T02:33:56;13.00;;;7.80;;
830;SDS011;397;50.564;7.272;2022-10-03T02:44:54;12.07;;;7.73;;
830;SDS011;397;50.564;7.272;2022-10-03T02:47:36;13.80;;;7.10;;
830;SDS011;397;50.564;7.272;2022-10-03T02:50:37;12.03;;;6.47;;
830;SDS011;397;50.564;7.272;2022-10-03T02:53:11;14.80;;;6.07;;
830;SDS011;397;50.564;7.272;2022-10-03T03:01:37;11.03;;;5.47;;
830;SDS011;397;50.564;7.272;2022-10-03T03:18:34;13.97;;;6.70;;
830;SDS011;397;50.564;7.272;2022-10-03T03:29:21;8.03;;;5.20;;
830;SDS011;397;50.564;7.272;2022-10-03T03:32:03;7.40;;;4.80;;
830;SDS011;397;50.564;7.272;2022-10-03T03:37:17;10.93;;;6.40;;
830;SDS011;397;50.564;7.272;2022-10-03T03:45:32;7.40;;;5.70;;
830;SDS011;397;50.564;7.272;2022-10-03T03:48:15;9.10;;;6.57;;
830;SDS011;397;50.564;7.272;2022-10-03T03:50:58;11.30;;;7.07;;
830;SDS011;397;50.564;7.272;2022-10-03T03:53:29;8.63;;;6.73;;
830;SDS011;397;50.564;7.272;2022-10-03T03:58:59;12.90;;;5.70;;
830;SDS011;397;50.564;7.272;2022-10-03T04:04:30;15.63;;;7.47;;
830;SDS011;397;50.564;7.272;2022-10-03T04:07:06;8.00;;;5.90;;
830;SDS011;397;50.564;7.272;2022-10-03T04:10:02;11.07;;;6.60;;
830;SDS011;397;50.564;7.272;2022-10-03T04:20:37;8.87;;;6.80;;
830;SDS011;397;50.564;7.272;2022-10-03T04:25:57;7.77;;;5.37;;
830;SDS011;397;50.564;7.272;2022-10-03T04:28:46;9.70;;;6.37;;
830;SDS011;397;50.564;7.272;2022-10-03T04:31:22;9.70;;;6.60;;
830;SDS011;397;50.564;7.272;2022-10-03T04:36:42;16.77;;;7.07;;
830;SDS011;397;50.564;7.272;2022-10-03T04:39:34;12.17;;;7.40;;
830;SDS011;397;50.564;7.272;2022-10-03T04:42:17;13.60;;;7.40;;
830;SDS011;397;50.564;7.272;2022-10-03T04:47:50;12.57;;;6.93;;
830;SDS011;397;50.564;7.272;2022-10-03T04:50:36;17.77;;;8.70;;
830;SDS011;397;50.564;7.272;2022-10-03T04:53:20;17.20;;;8.07;;
830;SDS011;397;50.564;7.272;2022-10-03T05:04:57;14.73;;;7.50;;
830;SDS011;397;50.564;7.272;2022-10-03T05:10:33;11.30;;;8.03;;
830;SDS011;397;50.564;7.272;2022-10-03T05:13:07;11.23;;;7.97;;
830;SDS011;397;50.564;7.272;2022-10-03T05:18:17;11.77;;;7.43;;
830;SDS011;397;50.564;7.272;2022-10-03T05:21:04;14.00;;;6.63;;
830;SDS011;397;50.564;7.272;2022-10-03T05:26:21;12.03;;;5.97;;
830;SDS011;397;50.564;7.272;2022-10-03T05:29:14;11.17;;;6.30;;
830;SDS011;397;50.564;7.272;2022-10-03T05:32:05;13.93;;;6.30;;
830;SDS011;397;50.564;7.272;2022-10-03T05:40:23;8.60;;;6.53;;
830;SDS011;397;50.564;7.272;2022-10-03T05:43:02;12.73;;;8.17;;
830;SDS011;397;50.564;7.272;2022-10-03T05:56:43;16.73;;;10.20;;
830;SDS011;397;50.564;7.272;2022-10-03T05:59:13;20.20;;;10.93;;
830;SDS011;397;50.564;7.272;2022-10-03T06:07:53;17.60;;;11.53;;
830;SDS011;397;50.564;7.272;2022-10-03T06:10:22;18.87;;;11.50;;
830;SDS011;397;50.564;7.272;2022-10-03T06:15:31;21.30;;;11.60;;
830;SDS011;397;50.564;7.272;2022-10-03T06:18:20;25.30;;;14.27;;
830;SDS011;397;50.564;7.272;2022-10-03T06:26:58;18.03;;;10.67;;
830;SDS011;397;50.564;7.272;2022-10-03T06:38:37;20.10;;;12.13;;
830;SDS011;397;50.564;7.272;2022-10-03T06:44:01;21.43;;;12.77;;
830;SDS011;397;50.564;7.272;2022-10-03T06:47:08;19.53;;;10.70;;
830;SDS011;397;50.564;7.272;2022-10-03T06:49:42;27.37;;;14.87;;
830;SDS011;397;50.564;7.272;2022-10-03T06:55:26;28.77;;;13.30;;
830;SDS011;397;50.564;7.272;2022-10-03T06:58:04;23.00;;;14.50;;
830;SDS011;397;50.564;7.272;2022-10-03T07:00:54;18.17;;;11.97;;
830;SDS011;397;50.564;7.272;2022-10-03T07:03:48;19.13;;;12.07;;
830;SDS011;397;50.564;7.272;2022-10-03T07:23:44;17.07;;;9.90;;
830;SDS011;397;50.564;7.272;2022-10-03T07:26:14;21.43;;;11.20;;
830;SDS011;397;50.564;7.272;2022-10-03T07:29:06;16.53;;;10.77;;
830;SDS011;397;50.564;7.272;2022-10-03T07:34:30;19.07;;;10.60;;
830;SDS011;397;50.564;7.272;2022-10-03T07:37:12;20.23;;;11.00;;
830;SDS011;397;50.564;7.272;2022-10-03T07:51:30;14.30;;;10.33;;
830;SDS011;397;50.564;7.272;2022-10-03T07:59:47;17.63;;;9.90;;
830;SDS011;397;50.564;7.272;2022-10-03T08:02:49;14.53;;;9.97;;
830;SDS011;397;50.564;7.272;2022-10-03T08:11:18;18.47;;;9.73;;
830;SDS011;397;50.564;7.272;2022-10-03T08:17:00;12.30;;;8.30;;
830;SDS011;397;50.564;7.272;2022-10-03T08:19:55;16.20;;;8.60;;
830;SDS011;397;50.564;7.272;2022-10-03T08:22:42;14.53;;;8.20;;
830;SDS011;397;50.564;7.272;2022-10-03T08:36:09;13.03;;;6.67;;
830;SDS011;397;50.564;7.272;2022-10-03T08:42:19;15.53;;;6.10;;
830;SDS011;397;50.564;7.272;2022-10-03T08:45:18;13.97;;;7.23;;
830;SDS011;397;50.564;7.272;2022-10-03T08:50:49;12.53;;;5.83;;
830;SDS011;397;50.564;7.272;2022-10-03T09:15:48;7.97;;;4.50;;
830;SDS011;397;50.564;7.272;2022-10-03T09:18:26;10.50;;;4.93;;
830;SDS011;397;50.564;7.272;2022-10-03T09:34:51;8.90;;;3.90;;
830;SDS011;397;50.564;7.272;2022-10-03T09:40:31;7.60;;;3.80;;
830;SDS011;397;50.564;7.272;2022-10-03T09:43:02;11.73;;;3.93;;
830;SDS011;397;50.564;7.272;2022-10-03T09:45:47;7.77;;;3.80;;
830;SDS011;397;50.564;7.272;2022-10-03T09:48:24;13.73;;;4.67;;
830;SDS011;397;50.564;7.272;2022-10-03T09:51:00;11.03;;;3.67;;
830;SDS011;397;50.564;7.272;2022-10-03T09:59:15;11.20;;;4.50;;
830;SDS011;397;50.564;7.272;2022-10-03T10:05:43;12.47;;;3.90;;
830;SDS011;397;50.564;7.272;2022-10-03T10:14:12;9.00;;;4.00;;
830;SDS011;397;50.564;7.272;2022-10-03T11:06:52;7.33;;;2.00;;
830;SDS011;397;50.564;7.272;2022-10-03T11:09:43;8.93;;;2.63;;
830;SDS011;397;50.564;7.272;2022-10-03T11:12:28;5.23;;;1.80;;
830;SDS011;397;50.564;7.272;2022-10-03T11:15:12;7.10;;;1.80;;
830;SDS011;397;50.564;7.272;2022-10-03T11:38:24;5.80;;;1.93;;
830;SDS011;397;50.564;7.272;2022-10-03T11:46:40;6.53;;;2.20;;
830;SDS011;397;50.564;7.272;2022-10-03T11:49:12;6.07;;;2.50;;
830;SDS011;397;50.564;7.272;2022-10-03T11:51:43;5.30;;;2.10;;
830;SDS011;397;50.564;7.272;2022-10-03T11:54:19;3.00;;;2.00;;
830;SDS011;397;50.564;7.272;2022-10-03T11:56:48;9.03;;;2.90;;
830;SDS011;397;50.564;7.272;2022-10-03T12:05:00;5.67;;;3.37;;
830;SDS011;397;50.564;7.272;2022-10-03T12:07:46;4.73;;;2.50;;
830;SDS011;397;50.564;7.272;2022-10-03T12:13:43;4.90;;;2.63;;
830;SDS011;397;50.564;7.272;2022-10-03T12:16:29;6.97;;;3.20;;
830;SDS011;397;50.564;7.272;2022-10-03T12:19:09;7.50;;;2.80;;
830;SDS011;397;50.564;7.272;2022-10-03T12:22:25;6.20;;;2.23;;
830;SDS011;397;50.564;7.272;2022-10-03T12:24:28;4.70;;;2.20;;
830;SDS011;397;50.564;7.272;2022-10-03T12:27:10;8.30;;;2.53;;
830;SDS011;397;50.564;7.272;2022-10-03T12:29:54;5.70;;;2.27;;
830;SDS011;397;50.564;7.272;2022-10-03T12:32:41;7.27;;;3.00;;
830;SDS011;397;50.564;7.272;2022-10-03T12:35:14;5.50;;;2.40;;
830;SDS011;397;50.564;7.272;2022-10-03T12:37:43;6.70;;;3.87;;
830;SDS011;397;50.564;7.272;2022-10-03T12:40:25;6.63;;;3.63;;
830;SDS011;397;50.564;7.272;2022-10-03T12:43:03;5.47;;;2.03;;
830;SDS011;397;50.564;7.272;2022-10-03T12:45:56;6.10;;;2.07;;
830;SDS011;397;50.564;7.272;2022-10-03T12:48:37;9.10;;;2.70;;
830;SDS011;397;50.564;7.272;2022-10-03T12:51:09;8.13;;;3.07;;
830;SDS011;397;50.564;7.272;2022-10-03T12:56:40;8.77;;;2.60;;
830;SDS011;397;50.564;7.272;2022-10-03T13:05:24;5.80;;;4.47;;
830;SDS011;397;50.564;7.272;2022-10-03T13:07:46;3.67;;;1.97;;
830;SDS011;397;50.564;7.272;2022-10-03T13:10:27;5.37;;;2.40;;
830;SDS011;397;50.564;7.272;2022-10-03T13:13:48;8.63;;;3.00;;
830;SDS011;397;50.564;7.272;2022-10-03T13:18:28;4.33;;;2.27;;
830;SDS011;397;50.564;7.272;2022-10-03T13:26:31;3.73;;;1.90;;
830;SDS011;397;50.564;7.272;2022-10-03T13:31:40;4.03;;;2.30;;
830;SDS011;397;50.564;7.272;2022-10-03T13:34:13;7.20;;;3.00;;
830;SDS011;397;50.564;7.272;2022-10-03T13:36:42;9.43;;;2.20;;
830;SDS011;397;50.564;7.272;2022-10-03T13:39:13;6.43;;;3.10;;
830;SDS011;397;50.564;7.272;2022-10-03T13:44:46;4.87;;;1.97;;
830;SDS011;397;50.564;7.272;2022-10-03T13:47:25;4.13;;;2.80;;
830;SDS011;397;50.564;7.272;2022-10-03T13:49:55;5.13;;;4.17;;
830;SDS011;397;50.564;7.272;2022-10-03T13:52:43;7.33;;;3.10;;
830;SDS011;397;50.564;7.272;2022-10-03T13:55:29;6.40;;;4.57;;
830;SDS011;397;50.564;7.272;2022-10-03T14:09:37;6.13;;;2.50;;
830;SDS011;397;50.564;7.272;2022-10-03T14:12:21;6.67;;;2.30;;
830;SDS011;397;50.564;7.272;2022-10-03T14:15:06;5.40;;;1.63;;
830;SDS011;397;50.564;7.272;2022-10-03T14:31:34;5.67;;;2.30;;
830;SDS011;397;50.564;7.272;2022-10-03T14:34:05;4.87;;;1.97;;
830;SDS011;397;50.564;7.272;2022-10-03T14:36:48;2.50;;;1.80;;
830;SDS011;397;50.564;7.272;2022-10-03T14:44:42;5.70;;;2.63;;
830;SDS011;397;50.564;7.272;2022-10-03T14:47:15;4.27;;;2.10;;
830;SDS011;397;50.564;7.272;2022-10-03T14:49:52;5.23;;;2.10;;
830;SDS011;397;50.564;7.272;2022-10-03T14:52:26;8.30;;;2.40;;
830;SDS011;397;50.564;7.272;2022-10-03T14:54:54;5.90;;;2.80;;
830;SDS011;397;50.564;7.272;2022-10-03T14:57:36;8.83;;;1.80;;
830;SDS011;397;50.564;7.272;2022-10-03T15:00:20;7.00;;;1.87;;
830;SDS011;397;50.564;7.272;2022-10-03T15:02:52;5.63;;;2.30;;
830;SDS011;397;50.564;7.272;2022-10-03T15:05:31;4.13;;;2.50;;
830;SDS011;397;50.564;7.272;2022-10-03T15:08:01;5.37;;;2.63;;
830;SDS011;397;50.564;7.272;2022-10-03T15:10:32;7.03;;;2.43;;
830;SDS011;397;50.564;7.272;2022-10-03T15:13:03;5.73;;;2.60;;
830;SDS011;397;50.564;7.272;2022-10-03T15:15:34;8.40;;;3.07;;
830;SDS011;397;50.564;7.272;2022-10-03T15:18:04;5.70;;;2.80;;
830;SDS011;397;50.564;7.272;2022-10-03T15:20:35;6.97;;;2.53;;
830;SDS011;397;50.564;7.272;2022-10-03T15:23:05;4.53;;;2.30;;
830;SDS011;397;50.564;7.272;2022-10-03T15:25:37;5.17;;;2.10;;
830;SDS011;397;50.564;7.272;2022-10-03T15:28:29;8.23;;;2.90;;
830;SDS011;397;50.564;7.272;2022-10-03T15:30:39;3.60;;;2.03;;
830;SDS011;397;50.564;7.272;2022-10-03T15:33:15;4.23;;;2.70;;
830;SDS011;397;50.564;7.272;2022-10-03T15:35:54;4.60;;;2.50;;
830;SDS011;397;50.564;7.272;2022-10-03T15:38:26;3.60;;;2.07;;
830;SDS011;397;50.564;7.272;2022-10-03T15:41:11;3.90;;;2.60;;
830;SDS011;397;50.564;7.272;2022-10-03T15:43:54;9.73;;;3.10;;
830;SDS011;397;50.564;7.272;2022-10-03T15:46:30;8.33;;;3.23;;
830;SDS011;397;50.564;7.272;2022-10-03T15:49:05;5.97;;;2.77;;
830;SDS011;397;50.564;7.272;2022-10-03T15:51:35;5.40;;;3.00;;
830;SDS011;397;50.564;7.272;2022-10-03T15:54:06;4.63;;;2.87;;
830;SDS011;397;50.564;7.272;2022-10-03T15:56:39;7.20;;;3.03;;
830;SDS011;397;50.564;7.272;2022-10-03T15:59:16;7.20;;;3.07;;
830;SDS011;397;50.564;7.272;2022-10-03T16:01:45;4.80;;;3.20;;
830;SDS011;397;50.564;7.272;2022-10-03T16:15:00;5.80;;;2.83;;
830;SDS011;397;50.564;7.272;2022-10-03T16:17:44;4.50;;;2.70;;
830;SDS011;397;50.564;7.272;2022-10-03T16:20:12;4.83;;;3.07;;
830;SDS011;397;50.564;7.272;2022-10-03T16:22:43;5.60;;;3.33;;
830;SDS011;397;50.564;7.272;2022-10-03T16:25:24;6.23;;;3.30;;
830;SDS011;397;50.564;7.272;2022-10-03T16:28:13;6.20;;;3.30;;
830;SDS011;397;50.564;7.272;2022-10-03T16:30:35;5.10;;;2.87;;
830;SDS011;397;50.564;7.272;2022-10-03T16:38:30;6.70;;;3.87;;
830;SDS011;397;50.564;7.272;2022-10-03T16:41:34;6.97;;;4.40;;
830;SDS011;397;50.564;7.272;2022-10-03T16:43:53;7.97;;;4.13;;
830;SDS011;397;50.564;7.272;2022-10-03T16:46:19;5.30;;;3.63;;
830;SDS011;397;50.564;7.272;2022-10-03T16:48:49;7.43;;;3.23;;
830;SDS011;397;50.564;7.272;2022-10-03T16:54:11;7.80;;;3.73;;
830;SDS011;397;50.564;7.272;2022-10-03T16:56:46;5.73;;;3.63;;
830;SDS011;397;50.564;7.272;2022-10-03T16:59:17;5.90;;;3.40;;
830;SDS011;397;50.564;7.272;2022-10-03T17:01:48;11.03;;;5.23;;
830;SDS011;397;50.564;7.272;2022-10-03T17:04:21;10.03;;;4.40;;
830;SDS011;397;50.564;7.272;2022-10-03T17:07:10;7.80;;;4.77;;
830;SDS011;397;50.564;7.272;2022-10-03T17:09:44;4.83;;;3.53;;
830;SDS011;397;50.564;7.272;2022-10-03T17:14:46;6.10;;;4.10;;
830;SDS011;397;50.564;7.272;2022-10-03T17:20:16;6.30;;;3.97;;
830;SDS011;397;50.564;7.272;2022-10-03T17:22:42;6.50;;;3.60;;
830;SDS011;397;50.564;7.272;2022-10-03T17:28:07;8.43;;;4.00;;
830;SDS011;397;50.564;7.272;2022-10-03T17:30:48;5.50;;;3.20;;
830;SDS011;397;50.564;7.272;2022-10-03T17:33:26;7.30;;;3.37;;
830;SDS011;397;50.564;7.272;2022-10-03T17:47:04;5.50;;;3.43;;
830;SDS011;397;50.564;7.272;2022-10-03T17:52:21;11.00;;;3.70;;
830;SDS011;397;50.564;7.272;2022-10-03T17:54:52;5.60;;;3.20;;
830;SDS011;397;50.564;7.272;2022-10-03T17:57:31;11.37;;;3.10;;
830;SDS011;397;50.564;7.272;2022-10-03T18:00:03;4.33;;;3.50;;
830;SDS011;397;50.564;7.272;2022-10-03T18:02:36;6.70;;;3.27;;
830;SDS011;397;50.564;7.272;2022-10-03T18:05:18;7.97;;;3.00;;
830;SDS011;397;50.564;7.272;2022-10-03T18:07:48;11.33;;;4.23;;
830;SDS011;397;50.564;7.272;2022-10-03T18:12:49;11.07;;;4.20;;
830;SDS011;397;50.564;7.272;2022-10-03T18:15:21;7.50;;;3.27;;
830;SDS011;397;50.564;7.272;2022-10-03T18:21:01;6.20;;;3.20;;
830;SDS011;397;50.564;7.272;2022-10-03T18:26:01;7.17;;;3.80;;
830;SDS011;397;50.564;7.272;2022-10-03T18:28:39;7.07;;;3.70;;
830;SDS011;397;50.564;7.272;2022-10-03T18:31:10;8.73;;;3.40;;
830;SDS011;397;50.564;7.272;2022-10-03T18:36:21;4.97;;;3.13;;
830;SDS011;397;50.564;7.272;2022-10-03T18:38:54;9.93;;;4.17;;
830;SDS011;397;50.564;7.272;2022-10-03T18:41:25;5.80;;;3.87;;
830;SDS011;397;50.564;7.272;2022-10-03T18:43:54;7.10;;;4.17;;
830;SDS011;397;50.564;7.272;2022-10-03T18:46:27;5.93;;;3.80;;
830;SDS011;397;50.564;7.272;2022-10-03T18:48:57;7.47;;;4.80;;
830;SDS011;397;50.564;7.272;2022-10-03T18:51:57;6.63;;;4.70;;
830;SDS011;397;50.564;7.272;2022-10-03T18:57:35;5.77;;;3.90;;
830;SDS011;397;50.564;7.272;2022-10-03T19:00:17;10.63;;;4.03;;
830;SDS011;397;50.564;7.272;2022-10-03T19:02:50;5.43;;;3.63;;
830;SDS011;397;50.564;7.272;2022-10-03T19:05:30;6.77;;;4.20;;
830;SDS011;397;50.564;7.272;2022-10-03T19:10:50;7.90;;;5.87;;
830;SDS011;397;50.564;7.272;2022-10-03T19:13:33;11.40;;;6.50;;
830;SDS011;397;50.564;7.272;2022-10-03T19:16:33;8.90;;;5.57;;
830;SDS011;397;50.564;7.272;2022-10-03T19:19:14;6.90;;;4.87;;
830;SDS011;397;50.564;7.272;2022-10-03T19:22:01;9.60;;;5.90;;
830;SDS011;397;50.564;7.272;2022-10-03T19:24:31;8.30;;;5.63;;
830;SDS011;397;50.564;7.272;2022-10-03T19:27:09;11.20;;;6.00;;
830;SDS011;397;50.564;7.272;2022-10-03T19:29:34;11.97;;;6.47;;
830;SDS011;397;50.564;7.272;2022-10-03T19:32:17;13.60;;;6.30;;
830;SDS011;397;50.564;7.272;2022-10-03T19:34:49;9.27;;;5.33;;
830;SDS011;397;50.564;7.272;2022-10-03T19:37:29;7.23;;;5.10;;
830;SDS011;397;50.564;7.272;2022-10-03T19:39:57;8.60;;;6.23;;
830;SDS011;397;50.564;7.272;2022-10-03T19:42:37;8.13;;;5.60;;
830;SDS011;397;50.564;7.272;2022-10-03T19:44:58;8.77;;;6.20;;
830;SDS011;397;50.564;7.272;2022-10-03T19:47:30;5.97;;;4.60;;
830;SDS011;397;50.564;7.272;2022-10-03T19:52:47;8.43;;;5.40;;
830;SDS011;397;50.564;7.272;2022-10-03T19:57:57;7.80;;;5.43;;
830;SDS011;397;50.564;7.272;2022-10-03T20:00:27;11.07;;;5.53;;
830;SDS011;397;50.564;7.272;2022-10-03T20:03:15;7.80;;;5.30;;
830;SDS011;397;50.564;7.272;2022-10-03T20:13:47;9.30;;;3.97;;
830;SDS011;397;50.564;7.272;2022-10-03T20:16:20;14.97;;;5.17;;
830;SDS011;397;50.564;7.272;2022-10-03T20:18:50;6.90;;;5.43;;
830;SDS011;397;50.564;7.272;2022-10-03T20:21:21;9.03;;;4.87;;
830;SDS011;397;50.564;7.272;2022-10-03T20:23:52;9.40;;;4.90;;
830;SDS011;397;50.564;7.272;2022-10-03T20:29:24;11.83;;;5.40;;
830;SDS011;397;50.564;7.272;2022-10-03T20:31:50;11.43;;;4.93;;
830;SDS011;397;50.564;7.272;2022-10-03T20:34:20;9.10;;;6.03;;
830;SDS011;397;50.564;7.272;2022-10-03T20:36:55;6.50;;;5.20;;
830;SDS011;397;50.564;7.272;2022-10-03T20:39:36;9.27;;;4.80;;
830;SDS011;397;50.564;7.272;2022-10-03T20:42:12;9.13;;;4.70;;
830;SDS011;397;50.564;7.272;2022-10-03T20:44:55;8.97;;;5.20;;
830;SDS011;397;50.564;7.272;2022-10-03T20:50:17;6.87;;;5.00;;
830;SDS011;397;50.564;7.272;2022-10-03T20:52:58;9.83;;;5.10;;
830;SDS011;397;50.564;7.272;2022-10-03T20:55:36;8.47;;;5.20;;
830;SDS011;397;50.564;7.272;2022-10-03T21:01:09;5.10;;;4.60;;
830;SDS011;397;50.564;7.272;2022-10-03T21:03:44;5.77;;;4.53;;
830;SDS011;397;50.564;7.272;2022-10-03T21:06:24;5.37;;;3.40;;
830;SDS011;397;50.564;7.272;2022-10-03T21:08:52;6.07;;;5.33;;
830;SDS011;397;50.564;7.272;2022-10-03T21:11:26;7.50;;;5.30;;
830;SDS011;397;50.564;7.272;2022-10-03T21:13:55;7.50;;;5.00;;
830;SDS011;397;50.564;7.272;2022-10-03T21:16:29;8.80;;;4.80;;
830;SDS011;397;50.564;7.272;2022-10-03T21:19:01;10.00;;;5.30;;
830;SDS011;397;50.564;7.272;2022-10-03T21:21:40;9.23;;;5.50;;
830;SDS011;397;50.564;7.272;2022-10-03T21:24:25;10.37;;;6.67;;
830;SDS011;397;50.564;7.272;2022-10-03T21:27:18;9.93;;;6.13;;
830;SDS011;397;50.564;7.272;2022-10-03T21:29:52;8.07;;;5.00;;
830;SDS011;397;50.564;7.272;2022-10-03T21:35:06;6.40;;;5.27;;
830;SDS011;397;50.564;7.272;2022-10-03T21:37:38;9.57;;;5.90;;
830;SDS011;397;50.564;7.272;2022-10-03T21:40:20;6.87;;;4.77;;
830;SDS011;397;50.564;7.272;2022-10-03T21:54:35;7.27;;;6.57;;
830;SDS011;397;50.564;7.272;2022-10-03T21:57:09;12.80;;;6.17;;
830;SDS011;397;50.564;7.272;2022-10-03T22:05:13;6.73;;;5.10;;
830;SDS011;397;50.564;7.272;2022-10-03T22:07:41;7.60;;;5.60;;
830;SDS011;397;50.564;7.272;2022-10-03T22:10:17;11.53;;;5.60;;
830;SDS011;397;50.564;7.272;2022-10-03T22:12:47;10.73;;;5.50;;
830;SDS011;397;50.564;7.272;2022-10-03T22:15:26;8.03;;;4.90;;
830;SDS011;397;50.564;7.272;2022-10-03T22:18:13;7.67;;;5.47;;
830;SDS011;397;50.564;7.272;2022-10-03T22:20:29;5.10;;;4.60;;
830;SDS011;397;50.564;7.272;2022-10-03T22:28:19;5.70;;;4.53;;
830;SDS011;397;50.564;7.272;2022-10-03T22:33:40;4.93;;;4.53;;
830;SDS011;397;50.564;7.272;2022-10-03T22:36:12;8.00;;;5.63;;
830;SDS011;397;50.564;7.272;2022-10-03T22:38:40;7.43;;;5.93;;
830;SDS011;397;50.564;7.272;2022-10-03T22:41:13;7.33;;;4.57;;
830;SDS011;397;50.564;7.272;2022-10-03T22:43:41;9.00;;;4.57;;
830;SDS011;397;50.564;7.272;2022-10-03T22:46:10;6.10;;;5.13;;
830;SDS011;397;50.564;7.272;2022-10-03T22:48:45;9.17;;;4.83;;
830;SDS011;397;50.564;7.272;2022-10-03T22:51:11;7.77;;;5.37;;
830;SDS011;397;50.564;7.272;2022-10-03T22:53:43;8.00;;;4.03;;
830;SDS011;397;50.564;7.272;2022-10-03T22:56:30;6.03;;;4.47;;
830;SDS011;397;50.564;7.272;2022-10-03T22:59:00;8.97;;;5.23;;
830;SDS011;397;50.564;7.272;2022-10-03T23:01:31;7.93;;;4.13;;
830;SDS011;397;50.564;7.272;2022-10-03T23:04:02;11.23;;;4.80;;
830;SDS011;397;50.564;7.272;2022-10-03T23:09:29;6.37;;;4.40;;
830;SDS011;397;50.564;7.272;2022-10-03T23:11:53;6.50;;;4.60;;
830;SDS011;397;50.564;7.272;2022-10-03T23:14:29;7.90;;;4.80;;
830;SDS011;397;50.564;7.272;2022-10-03T23:17:12;9.73;;;4.77;;
830;SDS011;397;50.564;7.272;2022-10-03T23:19:48;9.63;;;4.60;;
830;SDS011;397;50.564;7.272;2022-10-03T23:22:15;6.17;;;4.23;;
830;SDS011;397;50.564;7.272;2022-10-03T23:25:00;10.93;;;5.07;;
830;SDS011;397;50.564;7.272;2022-10-03T23:27:35;9.50;;;5.10;;
830;SDS011;397;50.564;7.272;2022-10-03T23:41:02;7.40;;;5.27;;
830;SDS011;397;50.564;7.272;2022-10-03T23:43:37;14.33;;;5.10;;
830;SDS011;397;50.564;7.272;2022-10-03T23:46:12;6.33;;;4.67;;
830;SDS011;397;50.564;7.272;2022-10-03T23:48:44;6.80;;;5.17;;
830;SDS011;397;50.564;7.272;2022-10-03T23:51:15;4.80;;;4.10;;
830;SDS011;397;50.564;7.272;2022-10-03T23:53:48;5.63;;;3.70;;
